Time;durP1;ratioP1;P1;durP2;ratioP2;P2;SDS_P1;SDS_P2;PMS_P1;PMS_P2;Temp;Humidity;BMP_temperature;BMP_pressure;BME280_temperature;BME280_humidity;BME280_pressure;Samples;Min_cycle;Max_cycle;Signal;HPM_P1;HPM_P2
2021/03/17 00:00:35;;;;;;;32.07;18.40;;;;;;;;;;4332962;33;20622;-82
2021/03/17 00:03:03;;;;;;;29.60;18.50;;;;;;;;;;4346967;33;20155;-83
2021/03/17 00:05:29;;;;;;;27.47;17.20;;;;;;;;;;4333197;33;20223;-83
2021/03/17 00:07:54;;;;;;;29.67;16.30;;;;;;;;;;4333298;33;20163;-83
2021/03/17 00:10:21;;;;;;;28.70;16.80;;;;;;;;;;4332934;33;20241;-83
2021/03/17 00:12:47;;;;;;;23.53;14.33;;;;;;;;;;4333368;33;20179;-84
2021/03/17 00:15:13;;;;;;;21.87;14.17;;;;;;;;;;4333305;33;20603;-83
2021/03/17 00:17:38;;;;;;;24.47;14.50;;;;;;;;;;4346312;33;20181;-83
2021/03/17 00:20:06;;;;;;;26.73;15.83;;;;;;;;;;4334686;33;20623;-84
2021/03/17 00:22:31;;;;;;;25.10;15.10;;;;;;;;;;4346964;33;20185;-84
2021/03/17 00:24:56;;;;;;;28.13;15.73;;;;;;;;;;4346935;33;20533;-84
2021/03/17 00:27:21;;;;;;;28.00;15.80;;;;;;;;;;4334190;33;20164;-83
2021/03/17 00:29:47;;;;;;;28.00;16.70;;;;;;;;;;4333025;33;20164;-82
2021/03/17 00:32:12;;;;;;;29.23;17.43;;;;;;;;;;4332804;33;20242;-82
2021/03/17 00:34:40;;;;;;;29.93;18.17;;;;;;;;;;4333513;33;20159;-82
2021/03/17 00:37:05;;;;;;;32.23;17.90;;;;;;;;;;4346439;33;20136;-82
2021/03/17 00:39:31;;;;;;;35.83;20.57;;;;;;;;;;4332592;33;20241;-82
2021/03/17 00:41:56;;;;;;;34.80;18.90;;;;;;;;;;4333500;33;20683;-82
2021/03/17 00:44:21;;;;;;;35.50;19.90;;;;;;;;;;4333597;33;20243;-82
2021/03/17 00:46:47;;;;;;;36.53;21.03;;;;;;;;;;4332597;33;20167;-82
2021/03/17 00:49:12;;;;;;;36.57;19.90;;;;;;;;;;4332848;33;20565;-83
2021/03/17 00:51:37;;;;;;;37.17;20.40;;;;;;;;;;4332975;33;20213;-83
2021/03/17 00:54:03;;;;;;;36.73;20.17;;;;;;;;;;4332985;33;20267;-83
2021/03/17 00:56:28;;;;;;;34.53;20.70;;;;;;;;;;4333223;33;20504;-83
2021/03/17 00:58:53;;;;;;;32.30;18.87;;;;;;;;;;4333649;33;20226;-83
2021/03/17 01:01:19;;;;;;;32.80;19.40;;;;;;;;;;4320717;33;20538;-83
2021/03/17 01:03:44;;;;;;;30.77;18.83;;;;;;;;;;4332147;33;20175;-83
2021/03/17 01:06:09;;;;;;;32.23;19.03;;;;;;;;;;4332323;33;20620;-83
2021/03/17 01:08:34;;;;;;;31.37;18.93;;;;;;;;;;4332507;33;20171;-83
2021/03/17 01:11:00;;;;;;;29.80;17.83;;;;;;;;;;4346510;33;20497;-83
2021/03/17 01:13:25;;;;;;;27.77;17.47;;;;;;;;;;4325965;33;20279;-83
2021/03/17 01:15:50;;;;;;;26.00;16.30;;;;;;;;;;4330229;33;20171;-83
2021/03/17 01:18:15;;;;;;;25.60;15.27;;;;;;;;;;4331072;33;20140;-83
2021/03/17 01:20:41;;;;;;;24.93;15.90;;;;;;;;;;4330514;33;20171;-83
2021/03/17 01:23:06;;;;;;;27.70;16.53;;;;;;;;;;4331806;33;20542;-83
2021/03/17 01:25:31;;;;;;;22.20;14.13;;;;;;;;;;4329890;33;20222;-82
2021/03/17 01:27:58;;;;;;;18.57;12.13;;;;;;;;;;4317241;33;20489;-82
2021/03/17 01:30:36;;;;;;;18.20;11.57;;;;;;;;;;4344347;33;20167;-81
2021/03/17 01:33:01;;;;;;;17.27;10.77;;;;;;;;;;4331866;33;20674;-81
2021/03/17 01:35:27;;;;;;;17.73;11.40;;;;;;;;;;4331854;33;20160;-82
2021/03/17 01:37:53;;;;;;;16.30;10.40;;;;;;;;;;4346075;33;20211;-81
2021/03/17 01:40:19;;;;;;;17.40;11.93;;;;;;;;;;4345075;33;20162;-82
2021/03/17 01:42:44;;;;;;;19.23;10.47;;;;;;;;;;4331654;33;20225;-82
2021/03/17 01:45:12;;;;;;;16.40;11.10;;;;;;;;;;4346681;33;20143;-81
2021/03/17 01:47:38;;;;;;;17.77;10.07;;;;;;;;;;4345196;33;20139;-82
2021/03/17 01:50:07;;;;;;;14.80;9.37;;;;;;;;;;4331694;33;20514;-82
2021/03/17 01:52:33;;;;;;;12.17;9.13;;;;;;;;;;4345003;33;20140;-83
2021/03/17 01:54:58;;;;;;;15.10;9.97;;;;;;;;;;4345161;33;20159;-83
2021/03/17 01:57:24;;;;;;;13.60;9.47;;;;;;;;;;4346028;33;20161;-82
2021/03/17 01:59:49;;;;;;;12.67;8.70;;;;;;;;;;4332075;33;20225;-82
2021/03/17 02:02:15;;;;;;;13.33;9.20;;;;;;;;;;4331597;33;20175;-82
2021/03/17 02:04:40;;;;;;;13.37;8.67;;;;;;;;;;4331933;33;20503;-82
2021/03/17 02:07:05;;;;;;;14.17;8.73;;;;;;;;;;4331801;33;20163;-82
2021/03/17 02:09:31;;;;;;;14.47;9.20;;;;;;;;;;4331652;33;20201;-82
2021/03/17 02:12:05;;;;;;;14.97;9.27;;;;;;;;;;4331499;33;20163;-82
2021/03/17 02:14:49;;;;;;;15.53;8.47;;;;;;;;;;4331410;33;20167;-82
2021/03/17 02:17:18;;;;;;;14.90;9.17;;;;;;;;;;4331438;33;20230;-81
2021/03/17 02:19:43;;;;;;;16.53;9.93;;;;;;;;;;4331389;33;20167;-81
2021/03/17 02:22:18;;;;;;;15.90;10.33;;;;;;;;;;4331465;33;20202;-81
2021/03/17 02:24:59;;;;;;;15.03;8.77;;;;;;;;;;4345028;33;20224;-81
2021/03/17 02:27:47;;;;;;;14.63;9.50;;;;;;;;;;4331964;33;20167;-83
2021/03/17 02:30:27;;;;;;;15.40;9.00;;;;;;;;;;4331704;33;20167;-81
2021/03/17 02:33:13;;;;;;;14.43;9.20;;;;;;;;;;4332183;33;20230;-79
2021/03/17 02:35:41;;;;;;;14.23;8.97;;;;;;;;;;4322200;33;20596;-83
2021/03/17 02:38:08;;;;;;;13.73;8.63;;;;;;;;;;4334480;33;20253;-83
2021/03/17 02:40:34;;;;;;;14.43;9.53;;;;;;;;;;4346825;33;20197;-82
2021/03/17 02:43:15;;;;;;;16.17;9.30;;;;;;;;;;4348091;33;20262;-82
2021/03/17 02:45:41;;;;;;;14.87;9.40;;;;;;;;;;4346426;33;20224;-81
2021/03/17 02:48:10;;;;;;;16.23;9.77;;;;;;;;;;4334390;33;20175;-81
2021/03/17 02:50:36;;;;;;;14.20;8.50;;;;;;;;;;4346821;33;20194;-81
2021/03/17 02:53:02;;;;;;;14.23;9.03;;;;;;;;;;4345674;33;20163;-82
2021/03/17 02:55:33;;;;;;;13.17;8.67;;;;;;;;;;4347467;33;20151;-83
2021/03/17 02:58:00;;;;;;;13.63;8.47;;;;;;;;;;4334231;33;20194;-83
2021/03/17 03:00:26;;;;;;;13.50;7.93;;;;;;;;;;4346312;33;20163;-82
2021/03/17 03:02:52;;;;;;;14.53;7.97;;;;;;;;;;4347385;33;20175;-83
2021/03/17 03:05:19;;;;;;;13.20;8.00;;;;;;;;;;4347270;33;20151;-83
2021/03/17 03:07:47;;;;;;;13.17;7.90;;;;;;;;;;4347875;33;20179;-83
2021/03/17 03:10:12;;;;;;;11.43;7.20;;;;;;;;;;4349471;33;20155;-84
2021/03/17 03:12:38;;;;;;;15.87;7.67;;;;;;;;;;4345215;33;21069;-83
2021/03/17 03:15:05;;;;;;;10.00;6.57;;;;;;;;;;4331233;33;20160;-83
2021/03/17 03:17:30;;;;;;;11.07;6.53;;;;;;;;;;4332290;33;20246;-83
2021/03/17 03:19:57;;;;;;;11.77;6.17;;;;;;;;;;4331111;33;20592;-82
2021/03/17 03:22:24;;;;;;;9.77;6.30;;;;;;;;;;4318928;33;20503;-83
2021/03/17 03:24:50;;;;;;;11.40;6.13;;;;;;;;;;4332375;33;20249;-83
2021/03/17 03:27:15;;;;;;;11.00;5.63;;;;;;;;;;4331440;33;20192;-83
2021/03/17 03:29:41;;;;;;;8.03;4.73;;;;;;;;;;4332229;33;20168;-83
2021/03/17 03:32:09;;;;;;;8.13;4.33;;;;;;;;;;4331002;33;20164;-83
2021/03/17 03:34:35;;;;;;;9.67;4.97;;;;;;;;;;4334194;33;20191;-83
2021/03/17 03:37:00;;;;;;;9.00;4.40;;;;;;;;;;4333289;33;20194;-83
2021/03/17 03:39:25;;;;;;;10.23;4.47;;;;;;;;;;4333647;33;20202;-83
2021/03/17 03:41:51;;;;;;;10.77;5.20;;;;;;;;;;4346359;33;20226;-83
2021/03/17 03:44:16;;;;;;;9.73;5.37;;;;;;;;;;4331771;33;20171;-82
2021/03/17 03:46:41;;;;;;;12.73;5.97;;;;;;;;;;4330576;33;20176;-82
2021/03/17 03:49:07;;;;;;;9.00;5.70;;;;;;;;;;4347041;33;20624;-84
2021/03/17 03:51:33;;;;;;;9.67;5.40;;;;;;;;;;4347550;33;20186;-82
2021/03/17 03:54:21;;;;;;;11.10;5.40;;;;;;;;;;4346709;33;20139;-82
2021/03/17 03:56:57;;;;;;;9.33;6.17;;;;;;;;;;4345244;33;20163;-82
2021/03/17 03:59:28;;;;;;;12.33;6.17;;;;;;;;;;4345972;33;20159;-83
2021/03/17 04:01:59;;;;;;;14.90;5.80;;;;;;;;;;4346798;33;20147;-83
2021/03/17 04:04:29;;;;;;;11.37;6.43;;;;;;;;;;4345140;33;20687;-83
2021/03/17 04:07:00;;;;;;;9.77;6.10;;;;;;;;;;4347791;33;20132;-82
2021/03/17 04:09:28;;;;;;;10.40;6.67;;;;;;;;;;4345170;33;20205;-82
2021/03/17 04:11:57;;;;;;;8.77;5.53;;;;;;;;;;4345163;33;20470;-82
2021/03/17 04:14:22;;;;;;;10.67;6.50;;;;;;;;;;4336191;33;20163;-84
2021/03/17 04:16:49;;;;;;;8.63;6.40;;;;;;;;;;4332902;33;20250;-80
2021/03/17 04:19:14;;;;;;;9.67;6.60;;;;;;;;;;4345067;33;20172;-82
2021/03/17 04:21:40;;;;;;;13.80;6.43;;;;;;;;;;4332886;33;20278;-83
2021/03/17 04:24:06;;;;;;;10.47;6.10;;;;;;;;;;4345771;33;20167;-83
2021/03/17 04:26:33;;;;;;;9.50;5.43;;;;;;;;;;4345253;33;20167;-82
2021/03/17 04:28:58;;;;;;;9.13;5.93;;;;;;;;;;4335923;33;20166;-82
2021/03/17 04:31:24;;;;;;;8.60;5.13;;;;;;;;;;4346826;33;20548;-84
2021/03/17 04:33:58;;;;;;;9.20;5.40;;;;;;;;;;4344749;33;20593;-82
2021/03/17 04:36:25;;;;;;;9.10;5.23;;;;;;;;;;4332870;33;20201;-82
2021/03/17 04:38:51;;;;;;;7.20;4.47;;;;;;;;;;4344866;33;20509;-84
2021/03/17 04:41:17;;;;;;;5.70;3.97;;;;;;;;;;4344868;33;20175;-83
2021/03/17 04:43:43;;;;;;;8.20;3.90;;;;;;;;;;4346667;33;20132;-85
2021/03/17 04:46:10;;;;;;;5.67;3.00;;;;;;;;;;4346208;33;20599;-84
2021/03/17 04:48:37;;;;;;;4.33;2.43;;;;;;;;;;4344850;33;20178;-84
2021/03/17 04:51:03;;;;;;;5.00;2.50;;;;;;;;;;4332743;33;20202;-83
2021/03/17 04:53:28;;;;;;;3.07;1.60;;;;;;;;;;4332275;33;20171;-84
2021/03/17 04:55:53;;;;;;;7.83;2.10;;;;;;;;;;4342847;33;20522;-84
2021/03/17 04:58:23;;;;;;;5.03;1.50;;;;;;;;;;4345913;33;20226;-84
2021/03/17 05:00:49;;;;;;;2.03;1.40;;;;;;;;;;4339472;33;20664;-83
2021/03/17 05:03:15;;;;;;;3.50;1.43;;;;;;;;;;4345743;33;20194;-83
2021/03/17 05:05:42;;;;;;;3.50;1.40;;;;;;;;;;4344690;33;20167;-82
2021/03/17 05:08:08;;;;;;;3.33;1.30;;;;;;;;;;4345618;33;20576;-83
2021/03/17 05:10:34;;;;;;;1.27;1.10;;;;;;;;;;4336533;33;20171;-83
2021/03/17 05:13:01;;;;;;;3.67;1.40;;;;;;;;;;4332541;33;20206;-84
2021/03/17 05:15:27;;;;;;;2.00;1.30;;;;;;;;;;4341144;33;20218;-83
2021/03/17 05:17:52;;;;;;;4.90;1.50;;;;;;;;;;4323072;33;20276;-83
2021/03/17 05:20:19;;;;;;;3.53;1.40;;;;;;;;;;4328415;33;20213;-85
2021/03/17 05:22:45;;;;;;;3.83;1.83;;;;;;;;;;4334714;33;20171;-82
2021/03/17 05:25:11;;;;;;;4.03;1.83;;;;;;;;;;4332939;33;20277;-84
2021/03/17 05:27:37;;;;;;;2.77;1.87;;;;;;;;;;4344461;33;20171;-83
2021/03/17 05:30:07;;;;;;;8.57;2.33;;;;;;;;;;4344192;33;20217;-83
2021/03/17 05:32:35;;;;;;;4.57;1.73;;;;;;;;;;4344586;33;20163;-85
2021/03/17 05:35:06;;;;;;;4.23;2.27;;;;;;;;;;4344201;33;20197;-83
2021/03/17 05:37:31;;;;;;;3.63;2.33;;;;;;;;;;4345632;33;20151;-85
2021/03/17 05:39:56;;;;;;;8.33;2.40;;;;;;;;;;4336484;33;20662;-84
2021/03/17 05:42:23;;;;;;;2.10;1.87;;;;;;;;;;4331690;33;20171;-83
2021/03/17 05:44:50;;;;;;;7.30;2.20;;;;;;;;;;4331699;33;20167;-81
2021/03/17 05:47:17;;;;;;;6.43;2.53;;;;;;;;;;4331571;33;20206;-82
2021/03/17 05:49:42;;;;;;;2.83;1.80;;;;;;;;;;4331484;33;20198;-84
2021/03/17 05:52:08;;;;;;;2.60;1.60;;;;;;;;;;4345646;33;20139;-82
2021/03/17 05:54:33;;;;;;;2.43;1.47;;;;;;;;;;4332079;33;20188;-83
2021/03/17 05:57:01;;;;;;;3.97;1.50;;;;;;;;;;4331565;33;20170;-83
2021/03/17 05:59:28;;;;;;;2.37;1.23;;;;;;;;;;4346113;33;20518;-83
2021/03/17 06:01:58;;;;;;;4.73;1.67;;;;;;;;;;4331692;33;20197;-82
2021/03/17 06:04:27;;;;;;;2.37;1.20;;;;;;;;;;4331841;33;20217;-82
2021/03/17 06:06:57;;;;;;;2.07;1.27;;;;;;;;;;4331352;33;20163;-84
2021/03/17 06:09:22;;;;;;;3.67;1.30;;;;;;;;;;4331251;33;20182;-84
2021/03/17 06:11:49;;;;;;;2.80;1.20;;;;;;;;;;4343840;33;20237;-84
2021/03/17 06:14:17;;;;;;;3.37;1.30;;;;;;;;;;4335792;33;20187;-84
2021/03/17 06:16:44;;;;;;;2.70;1.77;;;;;;;;;;4331444;33;20171;-83
2021/03/17 06:19:11;;;;;;;2.97;1.53;;;;;;;;;;4331265;33;20516;-82
2021/03/17 06:21:36;;;;;;;2.27;1.40;;;;;;;;;;4332181;33;20171;-83
2021/03/17 06:24:01;;;;;;;2.63;1.67;;;;;;;;;;4331327;33;20194;-86
2021/03/17 06:26:28;;;;;;;3.63;1.80;;;;;;;;;;4331444;33;20194;-83
2021/03/17 06:28:54;;;;;;;4.17;2.00;;;;;;;;;;4331124;33;20163;-84
2021/03/17 06:31:20;;;;;;;3.07;1.70;;;;;;;;;;4344044;33;20160;-84
2021/03/17 06:33:45;;;;;;;3.10;1.60;;;;;;;;;;4343586;33;20222;-84
2021/03/17 06:36:22;;;;;;;2.50;1.83;;;;;;;;;;4344144;33;20352;-83
2021/03/17 06:38:47;;;;;;;2.53;1.80;;;;;;;;;;4345040;33;20218;-82
2021/03/17 06:41:13;;;;;;;3.80;2.00;;;;;;;;;;4344124;33;20179;-80
2021/03/17 06:43:43;;;;;;;2.43;1.80;;;;;;;;;;4347337;33;20203;-84
2021/03/17 06:46:09;;;;;;;5.20;1.93;;;;;;;;;;4333501;33;20179;-81
2021/03/17 06:48:37;;;;;;;2.73;1.80;;;;;;;;;;4343330;33;20541;-81
2021/03/17 06:51:04;;;;;;;4.07;1.83;;;;;;;;;;4345308;33;20552;-82
2021/03/17 06:53:38;;;;;;;3.40;2.10;;;;;;;;;;4343301;33;20171;-82
2021/03/17 06:56:30;;;;;;;3.07;2.10;;;;;;;;;;4326751;33;20859;-80
2021/03/17 06:59:05;;;;;;;2.93;1.80;;;;;;;;;;4341883;33;20202;-82
2021/03/17 07:01:41;;;;;;;1.90;1.60;;;;;;;;;;4344727;33;20205;-80
2021/03/17 07:04:12;;;;;;;2.43;1.90;;;;;;;;;;4347005;33;20155;-85
2021/03/17 07:06:41;;;;;;;3.53;1.80;;;;;;;;;;4343850;33;20197;-82
2021/03/17 07:09:20;;;;;;;3.90;1.70;;;;;;;;;;4345191;33;20493;-83
2021/03/17 07:11:46;;;;;;;3.77;1.90;;;;;;;;;;4330875;33;20551;-82
2021/03/17 07:14:11;;;;;;;3.40;2.20;;;;;;;;;;4343293;33;20172;-82
2021/03/17 07:16:37;;;;;;;4.53;2.30;;;;;;;;;;4344782;33;20183;-83
2021/03/17 07:19:03;;;;;;;3.40;2.10;;;;;;;;;;4344049;33;20197;-83
2021/03/17 07:21:29;;;;;;;3.90;2.43;;;;;;;;;;4333972;33;20198;-84
2021/03/17 07:23:54;;;;;;;4.87;2.20;;;;;;;;;;4333596;33;20180;-81
2021/03/17 07:26:20;;;;;;;2.83;2.00;;;;;;;;;;4346023;33;20270;-83
2021/03/17 07:28:52;;;;;;;3.80;2.00;;;;;;;;;;4348322;33;20174;-85
2021/03/17 07:31:36;;;;;;;2.50;1.80;;;;;;;;;;4334141;33;20223;-84
2021/03/17 07:34:07;;;;;;;7.23;1.80;;;;;;;;;;4334232;33;20197;-83
2021/03/17 07:36:35;;;;;;;3.50;1.73;;;;;;;;;;4333523;33;20175;-84
2021/03/17 07:39:03;;;;;;;3.83;2.37;;;;;;;;;;4332884;33;20655;-83
2021/03/17 07:41:28;;;;;;;4.20;2.00;;;;;;;;;;4340553;33;20230;-83
2021/03/17 07:43:54;;;;;;;2.50;1.80;;;;;;;;;;4333431;33;20230;-82
2021/03/17 07:46:21;;;;;;;5.07;2.30;;;;;;;;;;4335202;33;20706;-80
2021/03/17 07:48:48;;;;;;;3.67;2.50;;;;;;;;;;4346879;33;20143;-84
2021/03/17 07:51:14;;;;;;;4.10;2.30;;;;;;;;;;4346370;33;20171;-84
2021/03/17 07:53:39;;;;;;;4.50;1.90;;;;;;;;;;4333363;33;20190;-86
2021/03/17 07:56:04;;;;;;;4.17;2.60;;;;;;;;;;4333825;33;20670;-84
2021/03/17 07:58:32;;;;;;;4.23;2.20;;;;;;;;;;4346644;33;20171;-83
2021/03/17 08:00:58;;;;;;;5.40;2.20;;;;;;;;;;4347841;33;20351;-81
2021/03/17 08:03:24;;;;;;;5.43;2.27;;;;;;;;;;4347081;33;20148;-84
2021/03/17 08:05:49;;;;;;;2.67;2.30;;;;;;;;;;4334383;33;20190;-82
2021/03/17 08:08:15;;;;;;;3.73;2.17;;;;;;;;;;4334769;33;20175;-85
2021/03/17 08:10:44;;;;;;;5.00;2.13;;;;;;;;;;4339232;33;20159;-85
2021/03/17 08:13:11;;;;;;;2.87;1.67;;;;;;;;;;4351550;33;20214;-84
2021/03/17 08:15:37;;;;;;;3.30;1.80;;;;;;;;;;4338003;33;20175;-83
2021/03/17 08:18:02;;;;;;;2.77;1.90;;;;;;;;;;4337253;33;20589;-84
2021/03/17 08:20:28;;;;;;;3.73;1.93;;;;;;;;;;4336868;33;20167;-83
2021/03/17 08:22:55;;;;;;;6.27;1.70;;;;;;;;;;4351745;33;20170;-83
2021/03/17 08:25:37;;;;;;;3.57;1.97;;;;;;;;;;4337952;33;20202;-83
2021/03/17 08:28:16;;;;;;;3.30;1.60;;;;;;;;;;4336357;33;20205;-84
2021/03/17 08:30:41;;;;;;;3.90;1.53;;;;;;;;;;4331857;33;20186;-83
2021/03/17 08:33:09;;;;;;;2.60;1.20;;;;;;;;;;4332483;33;20171;-84
2021/03/17 08:35:53;;;;;;;1.90;1.10;;;;;;;;;;4333099;33;20596;-81
2021/03/17 08:38:19;;;;;;;4.17;1.10;;;;;;;;;;4356817;33;20586;-82
2021/03/17 08:40:44;;;;;;;3.47;1.20;;;;;;;;;;4332286;33;20176;-83
2021/03/17 08:43:45;;;;;;;2.93;1.00;;;;;;;;;;4346211;33;20228;-84
2021/03/17 08:46:17;;;;;;;3.00;1.00;;;;;;;;;;4288516;33;20176;-80
2021/03/17 08:48:58;;;;;;;4.23;1.40;;;;;;;;;;4324725;33;20197;-84
2021/03/17 08:51:43;;;;;;;1.30;1.07;;;;;;;;;;4332533;33;20183;-84
2021/03/17 08:54:34;;;;;;;3.07;1.30;;;;;;;;;;4332377;33;20171;-81
2021/03/17 08:57:03;;;;;;;4.70;1.33;;;;;;;;;;4329367;33;20717;-83
2021/03/17 08:59:56;;;;;;;2.83;1.10;;;;;;;;;;4347307;33;20461;-83
2021/03/17 09:02:29;;;;;;;9.17;5.90;;;;;;;;;;4346144;33;20560;-86
2021/03/17 09:05:02;;;;;;;2.77;1.17;;;;;;;;;;4332099;33;20159;-83
2021/03/17 09:07:29;;;;;;;3.33;1.10;;;;;;;;;;4320789;33;20168;-84
2021/03/17 09:09:58;;;;;;;1.87;0.87;;;;;;;;;;4331759;33;20219;-84
2021/03/17 09:12:29;;;;;;;2.60;0.80;;;;;;;;;;4339761;33;20194;-82
2021/03/17 09:15:13;;;;;;;1.67;0.73;;;;;;;;;;4317710;33;20183;-83
2021/03/17 09:17:47;;;;;;;1.23;0.70;;;;;;;;;;4329468;33;20191;-81
2021/03/17 09:20:15;;;;;;;5.50;0.80;;;;;;;;;;4329811;33;20183;-81
2021/03/17 09:22:42;;;;;;;1.57;0.90;;;;;;;;;;4330442;33;20194;-86
2021/03/17 09:25:11;;;;;;;2.40;0.87;;;;;;;;;;4329609;33;20230;-82
2021/03/17 09:27:50;;;;;;;3.90;1.00;;;;;;;;;;4331408;33;20338;-84
2021/03/17 09:30:16;;;;;;;2.40;0.90;;;;;;;;;;4332166;33;20168;-85
2021/03/17 09:32:42;;;;;;;1.80;0.73;;;;;;;;;;4332311;33;20202;-83
2021/03/17 09:35:08;;;;;;;3.13;1.20;;;;;;;;;;4332504;33;20194;-84
2021/03/17 09:37:34;;;;;;;1.83;0.77;;;;;;;;;;4332946;33;20159;-86
2021/03/17 09:39:59;;;;;;;1.23;0.80;;;;;;;;;;4330029;33;20176;-82
2021/03/17 09:42:24;;;;;;;3.43;0.90;;;;;;;;;;4330779;33;20198;-82
2021/03/17 09:44:56;;;;;;;1.37;0.70;;;;;;;;;;4330424;33;20319;-82
2021/03/17 09:47:26;;;;;;;2.23;0.93;;;;;;;;;;4329493;33;20513;-83
2021/03/17 09:49:51;;;;;;;2.70;1.00;;;;;;;;;;4329358;33;20237;-82
2021/03/17 09:52:17;;;;;;;3.33;1.00;;;;;;;;;;4329964;33;20597;-84
2021/03/17 09:54:42;;;;;;;7.50;1.97;;;;;;;;;;4328722;33;20175;-83
2021/03/17 09:57:07;;;;;;;5.13;1.50;;;;;;;;;;4316709;33;20540;-82
2021/03/17 09:59:32;;;;;;;4.43;1.40;;;;;;;;;;4329658;33;20517;-83
2021/03/17 10:02:14;;;;;;;5.93;1.60;;;;;;;;;;4328932;33;20187;-85
2021/03/17 10:04:44;;;;;;;4.77;1.20;;;;;;;;;;4328933;33;20178;-82
2021/03/17 10:07:14;;;;;;;5.37;1.30;;;;;;;;;;4329553;33;20190;-83
2021/03/17 10:09:39;;;;;;;2.83;1.10;;;;;;;;;;4330032;33;20136;-83
2021/03/17 10:12:10;;;;;;;4.87;1.33;;;;;;;;;;4328984;33;20217;-84
2021/03/17 10:14:36;;;;;;;4.63;1.40;;;;;;;;;;4328959;33;20172;-78
2021/03/17 10:17:03;;;;;;;3.10;1.10;;;;;;;;;;4330903;33;20202;-83
2021/03/17 10:19:29;;;;;;;3.67;1.20;;;;;;;;;;4345068;33;20189;-85
2021/03/17 10:21:55;;;;;;;2.23;1.23;;;;;;;;;;4344378;33;20569;-81
2021/03/17 10:24:33;;;;;;;6.80;3.70;;;;;;;;;;4344889;33;20175;-82
2021/03/17 10:27:00;;;;;;;7.20;1.40;;;;;;;;;;4342122;33;20201;-83
2021/03/17 10:29:25;;;;;;;1.60;1.00;;;;;;;;;;4335951;33;20179;-86
2021/03/17 10:31:54;;;;;;;5.20;1.33;;;;;;;;;;4331548;33;20210;-83
2021/03/17 10:34:20;;;;;;;3.60;1.20;;;;;;;;;;4333026;33;20210;-83
2021/03/17 10:36:49;;;;;;;2.43;0.80;;;;;;;;;;4345200;33;20146;-83
2021/03/17 10:39:15;;;;;;;4.33;1.00;;;;;;;;;;4343053;33;20497;-85
2021/03/17 10:41:41;;;;;;;2.73;0.83;;;;;;;;;;4343559;33;20210;-81
2021/03/17 10:44:17;;;;;;;1.67;1.00;;;;;;;;;;4345402;33;20143;-83
2021/03/17 10:47:01;;;;;;;1.97;1.40;;;;;;;;;;4331534;33;20208;-84
2021/03/17 10:49:26;;;;;;;3.40;1.40;;;;;;;;;;4338406;33;20569;-83
2021/03/17 10:51:52;;;;;;;3.17;1.83;;;;;;;;;;4343821;33;20136;-82
2021/03/17 10:54:26;;;;;;;2.73;1.80;;;;;;;;;;4331950;33;20190;-82
2021/03/17 10:56:52;;;;;;;4.03;2.00;;;;;;;;;;4347325;33;20150;-82
2021/03/17 10:59:27;;;;;;;5.70;2.03;;;;;;;;;;4334750;33;20626;-83
2021/03/17 11:02:11;;;;;;;4.47;2.00;;;;;;;;;;4347000;33;20181;-84
2021/03/17 11:04:36;;;;;;;6.57;2.57;;;;;;;;;;4334277;33;20572;-82
2021/03/17 11:07:01;;;;;;;6.53;3.00;;;;;;;;;;4347631;33;20135;-80
2021/03/17 11:09:26;;;;;;;7.13;2.90;;;;;;;;;;4333479;33;20187;-83
2021/03/17 11:11:53;;;;;;;6.07;2.50;;;;;;;;;;4333494;33;20186;-83
2021/03/17 11:14:31;;;;;;;5.57;2.17;;;;;;;;;;4346801;33;20171;-84
2021/03/17 11:17:01;;;;;;;8.67;2.00;;;;;;;;;;4334147;33;20163;-85
2021/03/17 11:19:27;;;;;;;5.60;1.50;;;;;;;;;;4347962;33;20542;-86
2021/03/17 11:21:52;;;;;;;7.70;1.80;;;;;;;;;;4333446;33;20163;-84
2021/03/17 11:24:18;;;;;;;6.00;1.73;;;;;;;;;;4347551;33;20414;-81
2021/03/17 11:26:45;;;;;;;6.07;1.63;;;;;;;;;;4333937;33;20163;-85
2021/03/17 11:29:20;;;;;;;5.73;1.70;;;;;;;;;;4345457;33;20257;-84
2021/03/17 11:31:51;;;;;;;4.03;1.30;;;;;;;;;;4345612;33;20187;-84
2021/03/17 11:34:20;;;;;;;4.43;1.30;;;;;;;;;;4347220;33;20479;-85
2021/03/17 11:36:45;;;;;;;4.62;1.23;;;;;;;;;;4332835;33;20166;-82
2021/03/17 11:39:12;;;;;;;3.50;1.30;;;;;;;;;;4346111;33;20625;-81
2021/03/17 11:41:37;;;;;;;2.90;1.27;;;;;;;;;;4320250;33;20637;-84
2021/03/17 11:44:12;;;;;;;4.97;1.23;;;;;;;;;;4333254;33;20136;-84
2021/03/17 11:46:37;;;;;;;6.55;1.45;;;;;;;;;;4319097;33;20159;-82
2021/03/17 11:49:03;;;;;;;8.10;1.60;;;;;;;;;;4319084;33;20186;-82
2021/03/17 11:51:28;;;;;;;4.28;1.40;;;;;;;;;;4319248;33;20287;-84
2021/03/17 11:53:53;;;;;;;6.90;1.25;;;;;;;;;;4333186;33;20218;-82
2021/03/17 11:56:19;;;;;;;4.60;1.25;;;;;;;;;;4347394;33;20131;-80
2021/03/17 11:58:45;;;;;;;6.27;1.53;;;;;;;;;;4333022;33;20634;-79
2021/03/17 12:01:10;;;;;;;6.43;1.47;;;;;;;;;;4345853;33;20194;-81
2021/03/17 12:03:35;;;;;;;5.80;1.57;;;;;;;;;;4344255;33;20206;-82
2021/03/17 12:06:03;;;;;;;10.37;1.63;;;;;;;;;;4344276;33;20170;-83
2021/03/17 12:08:29;;;;;;;9.88;1.67;;;;;;;;;;4345223;33;20171;-81
2021/03/17 12:10:55;;;;;;;7.20;1.40;;;;;;;;;;4346092;33;20185;-84
2021/03/17 12:13:20;;;;;;;7.05;1.45;;;;;;;;;;4347239;33;20210;-82
2021/03/17 12:15:46;;;;;;;6.55;1.20;;;;;;;;;;4346678;33;20140;-83
2021/03/17 12:18:12;;;;;;;6.80;1.23;;;;;;;;;;4347556;33;20209;-81
2021/03/17 12:20:37;;;;;;;6.22;1.40;;;;;;;;;;4333139;33;20183;-84
2021/03/17 12:23:03;;;;;;;10.80;1.85;;;;;;;;;;4333709;33;20155;-83
2021/03/17 12:25:28;;;;;;;6.70;1.20;;;;;;;;;;4346925;33;20155;-80
2021/03/17 12:27:53;;;;;;;4.57;1.30;;;;;;;;;;4333797;33;20166;-80
2021/03/17 12:30:20;;;;;;;5.65;1.55;;;;;;;;;;4348209;33;20189;-81
2021/03/17 12:32:45;;;;;;;5.10;1.30;;;;;;;;;;4346386;33;20170;-82
2021/03/17 12:35:11;;;;;;;5.62;1.33;;;;;;;;;;4332114;33;20174;-81
2021/03/17 12:37:37;;;;;;;9.05;1.62;;;;;;;;;;4346341;33;20131;-83
2021/03/17 12:40:07;;;;;;;6.37;1.60;;;;;;;;;;4332248;33;20214;-80
2021/03/17 12:42:32;;;;;;;7.82;1.60;;;;;;;;;;4332229;33;20596;-82
2021/03/17 12:45:01;;;;;;;3.72;1.33;;;;;;;;;;4345767;33;20186;-84
2021/03/17 12:47:26;;;;;;;7.97;1.60;;;;;;;;;;4332380;33;20168;-80
2021/03/17 12:49:52;;;;;;;7.12;1.50;;;;;;;;;;4319039;33;20225;-81
2021/03/17 12:52:17;;;;;;;6.78;1.60;;;;;;;;;;4334680;33;20144;-82
2021/03/17 12:54:42;;;;;;;4.30;1.40;;;;;;;;;;4331155;33;20139;-83
2021/03/17 12:57:08;;;;;;;6.47;1.90;;;;;;;;;;4317836;33;20219;-81
2021/03/17 12:59:35;;;;;;;10.10;2.20;;;;;;;;;;4317995;33;20188;-83
2021/03/17 13:02:00;;;;;;;11.03;2.00;;;;;;;;;;4317920;33;20210;-79
2021/03/17 13:04:27;;;;;;;7.73;1.77;;;;;;;;;;4331206;33;20190;-84
2021/03/17 13:06:52;;;;;;;7.93;1.63;;;;;;;;;;4331172;33;20144;-84
2021/03/17 13:09:17;;;;;;;8.60;1.80;;;;;;;;;;4330299;33;20297;-82
2021/03/17 13:11:43;;;;;;;5.13;1.70;;;;;;;;;;4317143;33;20194;-84
2021/03/17 13:14:08;;;;;;;12.47;1.57;;;;;;;;;;4330718;33;20518;-84
2021/03/17 13:16:34;;;;;;;9.87;1.67;;;;;;;;;;4330513;33;20158;-83
2021/03/17 13:18:59;;;;;;;6.00;1.33;;;;;;;;;;4330890;33;20159;-84
2021/03/17 13:21:24;;;;;;;6.85;1.40;;;;;;;;;;4317401;33;20175;-83
2021/03/17 13:23:49;;;;;;;6.95;1.50;;;;;;;;;;4330823;33;20175;-84
2021/03/17 13:26:15;;;;;;;6.40;1.35;;;;;;;;;;4317174;33;20235;-84
2021/03/17 13:28:40;;;;;;;8.07;1.40;;;;;;;;;;4317000;33;20641;-84
2021/03/17 13:31:05;;;;;;;8.02;1.20;;;;;;;;;;4316792;33;20557;-82
2021/03/17 13:33:31;;;;;;;4.47;0.98;;;;;;;;;;4327275;33;20576;-82
2021/03/17 13:36:02;;;;;;;6.55;1.30;;;;;;;;;;4316416;33;20203;-83
2021/03/17 13:38:28;;;;;;;9.07;1.40;;;;;;;;;;4318353;33;20323;-82
2021/03/17 13:40:53;;;;;;;6.78;1.42;;;;;;;;;;4344359;33;20182;-85
2021/03/17 13:43:18;;;;;;;8.93;2.00;;;;;;;;;;4344719;33;20143;-83
2021/03/17 13:45:44;;;;;;;10.15;1.45;;;;;;;;;;4344968;33;20147;-84
2021/03/17 13:48:10;;;;;;;10.15;1.75;;;;;;;;;;4345917;33;20139;-84
2021/03/17 13:50:36;;;;;;;15.52;1.83;;;;;;;;;;4331177;33;20171;-83
2021/03/17 13:53:02;;;;;;;4.35;1.42;;;;;;;;;;4345477;33;20594;-85
2021/03/17 13:55:27;;;;;;;10.30;1.80;;;;;;;;;;4331507;33;20544;-82
2021/03/17 13:57:52;;;;;;;9.57;1.73;;;;;;;;;;4331468;33;20222;-82
2021/03/17 14:00:19;;;;;;;9.00;1.33;;;;;;;;;;4331597;33;20171;-82
2021/03/17 14:02:44;;;;;;;8.07;1.80;;;;;;;;;;4344944;33;20162;-87
2021/03/17 14:05:10;;;;;;;7.37;1.70;;;;;;;;;;4319974;33;20241;-80
2021/03/17 14:07:36;;;;;;;10.53;1.97;;;;;;;;;;4331377;33;20175;-86
2021/03/17 14:10:04;;;;;;;8.10;1.90;;;;;;;;;;4331236;33;20205;-83
2021/03/17 14:12:32;;;;;;;6.30;1.30;;;;;;;;;;4331306;33;20549;-84
2021/03/17 14:14:57;;;;;;;6.47;1.77;;;;;;;;;;4330883;33;20179;-83
2021/03/17 14:17:22;;;;;;;11.97;1.90;;;;;;;;;;4331587;33;20215;-79
2021/03/17 14:19:47;;;;;;;7.35;1.40;;;;;;;;;;4344028;33;20238;-81
2021/03/17 14:22:12;;;;;;;5.00;1.40;;;;;;;;;;4331748;33;20222;-79
2021/03/17 14:24:38;;;;;;;15.63;1.75;;;;;;;;;;4330589;33;20649;-78
2021/03/17 14:27:03;;;;;;;9.00;1.65;;;;;;;;;;4344158;33;20140;-77
2021/03/17 14:29:28;;;;;;;6.25;1.45;;;;;;;;;;4342728;33;20498;-80
2021/03/17 14:31:54;;;;;;;5.43;1.30;;;;;;;;;;4344081;33;20143;-79
2021/03/17 14:34:19;;;;;;;6.77;1.50;;;;;;;;;;4342938;33;20178;-80
2021/03/17 14:36:44;;;;;;;7.23;2.17;;;;;;;;;;4342895;33;20226;-77
2021/03/17 14:39:09;;;;;;;7.67;1.63;;;;;;;;;;4343742;33;20639;-78
2021/03/17 14:41:35;;;;;;;10.88;1.62;;;;;;;;;;4343649;33;20151;-77